Time;durP1;ratioP1;P1;durP2;ratioP2;P2;SDS_P1;SDS_P2;PMS_P1;PMS_P2;Temp;Humidity;BMP_temperature;BMP_pressure;BME280_temperature;BME280_humidity;BME280_pressure;Samples;Min_cycle;Max_cycle;Signal;HPM_P1;HPM_P2
2021/05/20 00:00:31;;;;;;;1.27;1.17;;;;;;;13.45;65.14;92646.78;5031409;28;20395;-42
2021/05/20 00:02:57;;;;;;;0.40;0.40;;;;;;;13.37;65.25;92646.22;5031295;28;20033;-41
2021/05/20 00:05:22;;;;;;;1.95;1.13;;;;;;;13.33;66.48;92645.22;5031573;28;20029;-41
2021/05/20 00:07:48;;;;;;;1.00;0.90;;;;;;;13.20;66.98;92635.31;5038483;28;20513;-43
2021/05/20 00:10:15;;;;;;;2.25;1.05;;;;;;;13.23;67.33;92636.19;5051468;28;20104;-41
2021/05/20 00:12:43;;;;;;;2.28;1.08;;;;;;;13.12;66.81;92637.50;5031938;28;20087;-44
2021/05/20 00:15:08;;;;;;;2.67;1.73;;;;;;;13.05;66.84;92624.53;5030500;28;20063;-44
2021/05/20 00:17:34;;;;;;;0.88;0.57;;;;;;;12.99;65.27;92598.41;5033101;28;20025;-43
2021/05/20 00:20:00;;;;;;;1.25;0.80;;;;;;;13.20;65.88;92612.41;5030621;28;20026;-41
2021/05/20 00:22:25;;;;;;;2.38;0.82;;;;;;;13.22;65.32;92623.63;5030620;28;20025;-43
2021/05/20 00:24:51;;;;;;;0.60;0.60;;;;;;;13.15;64.83;92621.72;5030745;28;20108;-42
2021/05/20 00:27:17;;;;;;;0.40;0.40;;;;;;;13.08;64.86;92628.19;5030618;28;20068;-46
2021/05/20 00:29:42;;;;;;;1.02;0.68;;;;;;;13.06;65.82;92623.19;5033423;28;20049;-42
2021/05/20 00:32:08;;;;;;;0.50;0.50;;;;;;;12.99;66.06;92613.00;5030224;28;20080;-42
2021/05/20 00:34:33;;;;;;;0.50;0.50;;;;;;;13.09;67.04;92626.84;5029831;28;20036;-41
2021/05/20 00:36:59;;;;;;;0.60;0.60;;;;;;;13.07;66.66;92619.13;5030232;28;20021;-42
2021/05/20 00:39:24;;;;;;;3.10;0.40;;;;;;;13.16;66.78;92637.06;5030523;28;20021;-42
2021/05/20 00:41:50;;;;;;;0.75;0.60;;;;;;;13.14;66.26;92636.91;5031764;28;20029;-43
2021/05/20 00:44:15;;;;;;;0.30;0.30;;;;;;;13.00;66.96;92639.38;5030109;28;20017;-44
2021/05/20 00:46:41;;;;;;;0.30;0.30;;;;;;;13.03;67.47;92629.91;5030071;28;20021;-44
2021/05/20 00:49:10;;;;;;;0.40;0.35;;;;;;;12.95;67.76;92634.84;5030283;28;20018;-42
2021/05/20 00:51:36;;;;;;;;;;;;;;;12.88;68.37;92642.03;5030259;28;20021;-42
2021/05/20 00:54:02;;;;;;;0.57;0.57;;;;;;;12.84;68.81;92627.16;5029823;28;19913;-45
2021/05/20 00:56:29;;;;;;;0.30;0.30;;;;;;;12.78;69.33;92629.47;5029408;28;20021;-42
2021/05/20 00:58:55;;;;;;;2.60;0.50;;;;;;;12.86;68.99;92621.75;5029967;28;20410;-42
2021/05/20 01:01:20;;;;;;;0.32;0.32;;;;;;;12.84;69.24;92629.91;5011269;28;20026;-42
2021/05/20 01:03:45;;;;;;;0.70;0.70;;;;;;;12.82;69.64;92638.09;5029864;28;20029;-42
2021/05/20 01:06:11;;;;;;;1.52;1.23;;;;;;;12.78;70.05;92654.38;5029716;28;20041;-43
2021/05/20 01:08:37;;;;;;;1.90;0.77;;;;;;;12.74;70.35;92651.31;5027003;28;20032;-42
2021/05/20 01:11:02;;;;;;;1.65;1.10;;;;;;;12.75;70.91;92648.00;5029473;28;20479;-42
2021/05/20 01:13:28;;;;;;;1.45;1.20;;;;;;;12.76;71.03;92657.00;5029539;28;20022;-42
2021/05/20 01:15:53;;;;;;;0.60;0.55;;;;;;;12.74;71.15;92659.63;5029658;28;20029;-41
2021/05/20 01:18:19;;;;;;;1.13;0.98;;;;;;;12.74;70.90;92652.06;5029754;28;20097;-43
2021/05/20 01:20:44;;;;;;;3.65;1.85;;;;;;;12.73;70.39;92645.03;5029741;28;20041;-41
2021/05/20 01:23:18;;;;;;;1.50;1.40;;;;;;;12.72;70.65;92638.06;5029289;28;20025;-44
2021/05/20 01:25:46;;;;;;;3.05;0.98;;;;;;;12.79;70.65;92623.34;5027282;28;20028;-44
2021/05/20 01:28:14;;;;;;;1.40;0.70;;;;;;;12.82;70.41;92616.63;5029323;28;20059;-41
2021/05/20 01:30:41;;;;;;;0.63;0.52;;;;;;;12.76;70.42;92613.44;5026909;28;20025;-42
2021/05/20 01:33:07;;;;;;;0.40;0.40;;;;;;;12.68;71.02;92587.94;5029530;28;20021;-41
2021/05/20 01:35:32;;;;;;;0.70;0.57;;;;;;;12.60;71.92;92592.88;5029274;28;20052;-41
2021/05/20 01:40:51;;;;;;;1.92;1.25;;;;;;;12.62;72.82;92581.22;5028223;28;20083;-43
2021/05/20 01:43:17;;;;;;;1.00;0.90;;;;;;;12.63;73.29;92566.78;5028392;28;20332;-42
2021/05/20 01:45:43;;;;;;;2.05;1.60;;;;;;;12.50;73.99;92575.53;5028812;28;20053;-41
2021/05/20 01:48:08;;;;;;;1.52;1.08;;;;;;;12.45;74.65;92575.81;5029310;28;20054;-40
2021/05/20 01:50:33;;;;;;;3.90;2.85;;;;;;;12.47;74.44;92568.41;5029402;28;20013;-41
2021/05/20 01:52:59;;;;;;;5.95;3.45;;;;;;;12.54;73.64;92559.19;5029218;28;20020;-41
2021/05/20 01:55:24;;;;;;;3.85;2.08;;;;;;;12.49;73.53;92553.97;5029091;28;20017;-42
2021/05/20 01:57:50;;;;;;;2.85;1.27;;;;;;;12.42;73.40;92546.53;5029233;28;20387;-43
2021/05/20 02:00:16;;;;;;;3.17;0.98;;;;;;;12.28;73.43;92531.66;5028616;28;20014;-43
2021/05/20 02:02:41;;;;;;;1.70;1.33;;;;;;;12.32;73.90;92531.97;5029232;28;20096;-41
2021/05/20 02:05:07;;;;;;;3.08;1.50;;;;;;;12.28;74.21;92529.63;5021577;28;20026;-41
2021/05/20 02:07:33;;;;;;;2.80;1.58;;;;;;;12.40;73.95;92529.78;5028105;28;20032;-43
2021/05/20 02:09:58;;;;;;;0.40;0.40;;;;;;;12.35;73.79;92528.75;5029349;28;20013;-42
2021/05/20 02:12:24;;;;;;;0.85;0.50;;;;;;;12.17;74.11;92521.91;5028248;28;20026;-40
2021/05/20 02:14:49;;;;;;;0.57;0.55;;;;;;;12.07;74.21;92524.66;5029093;28;20045;-40
2021/05/20 02:17:14;;;;;;;0.85;0.70;;;;;;;12.08;73.66;92519.84;5029103;28;20041;-41
2021/05/20 02:19:40;;;;;;;1.38;0.63;;;;;;;11.96;73.94;92525.22;5028799;28;20414;-40
2021/05/20 02:22:05;;;;;;;0.88;0.60;;;;;;;11.93;74.35;92523.59;5029465;28;20017;-41
2021/05/20 02:24:31;;;;;;;0.52;0.52;;;;;;;11.79;74.98;92514.28;5029505;28;20017;-42
2021/05/20 02:26:56;;;;;;;0.65;0.65;;;;;;;11.72;75.05;92511.63;5029091;28;20033;-41
2021/05/20 02:29:21;;;;;;;0.40;0.40;;;;;;;11.86;74.35;92516.19;5029402;28;20040;-42
2021/05/20 02:31:47;;;;;;;1.05;0.85;;;;;;;11.80;74.06;92512.25;5028972;28;20048;-41
2021/05/20 02:34:12;;;;;;;1.58;0.80;;;;;;;11.84;74.06;92518.06;5037603;28;20025;-41
2021/05/20 02:36:38;;;;;;;0.93;0.50;;;;;;;11.75;74.23;92513.97;5049160;28;20033;-43
2021/05/20 02:39:04;;;;;;;0.70;0.70;;;;;;;11.76;73.91;92520.94;5049178;28;20494;-41
2021/05/20 02:41:29;;;;;;;3.47;2.28;;;;;;;11.74;74.16;92514.53;5048776;28;20526;-43
2021/05/20 02:43:55;;;;;;;0.65;0.52;;;;;;;11.76;74.45;92518.19;5049111;28;20112;-41
2021/05/20 02:46:20;;;;;;;0.40;0.40;;;;;;;11.76;75.05;92523.00;5049076;28;20452;-42
2021/05/20 02:48:46;;;;;;;0.70;0.70;;;;;;;11.59;76.02;92520.28;5048784;28;20048;-41
2021/05/20 02:51:11;;;;;;;1.33;0.85;;;;;;;11.59;76.78;92526.56;5034725;28;20025;-41
2021/05/20 02:53:36;;;;;;;1.95;0.90;;;;;;;11.53;77.29;92511.56;5029161;28;20552;-41
2021/05/20 02:56:02;;;;;;;0.88;0.80;;;;;;;11.68;77.35;92523.13;5029000;28;20025;-41
2021/05/20 02:58:27;;;;;;;0.77;0.60;;;;;;;11.78;76.90;92510.03;5028832;28;20490;-41
2021/05/20 03:00:53;;;;;;;1.60;0.95;;;;;;;11.83;76.84;92500.00;5028830;28;20033;-42
2021/05/20 03:03:18;;;;;;;0.60;0.60;;;;;;;11.85;76.56;92487.06;5028796;28;20419;-41
2021/05/20 03:05:44;;;;;;;1.13;1.00;;;;;;;11.90;76.00;92471.50;5028933;28;20049;-40
2021/05/20 03:08:11;;;;;;;0.52;0.52;;;;;;;12.01;75.51;92477.19;5039097;28;20024;-42
2021/05/20 03:10:36;;;;;;;1.10;1.00;;;;;;;12.05;75.35;92483.00;5048816;28;20025;-40
2021/05/20 03:13:02;;;;;;;2.35;0.63;;;;;;;12.03;75.81;92490.44;5048639;28;20040;-40
2021/05/20 03:15:27;;;;;;;0.98;0.98;;;;;;;11.86;76.03;92491.28;5048342;28;20053;-42
2021/05/20 03:17:53;;;;;;;2.13;0.88;;;;;;;11.76;76.84;92504.38;5048700;28;20021;-40
2021/05/20 03:20:19;;;;;;;1.42;1.02;;;;;;;11.80;76.59;92504.66;5048088;28;20036;-39
2021/05/20 03:22:48;;;;;;;1.42;0.85;;;;;;;11.84;76.40;92518.81;5048721;28;20024;-41
2021/05/20 03:25:15;;;;;;;0.60;0.50;;;;;;;11.90;76.20;92515.75;5052245;28;20390;-42
2021/05/20 03:27:40;;;;;;;0.93;0.60;;;;;;;11.86;76.58;92523.75;5052236;28;20108;-40
2021/05/20 03:30:07;;;;;;;0.77;0.77;;;;;;;11.95;76.38;92523.75;5046397;28;20045;-40
2021/05/20 03:32:32;;;;;;;3.75;0.75;;;;;;;12.01;75.76;92510.38;5032190;28;20022;-40
2021/05/20 03:34:58;;;;;;;0.68;0.68;;;;;;;12.14;75.38;92523.81;5032131;28;20017;-41
2021/05/20 03:37:23;;;;;;;1.52;0.70;;;;;;;12.19;75.48;92528.28;5030680;28;20079;-41
2021/05/20 03:39:49;;;;;;;0.45;0.45;;;;;;;12.30;75.02;92526.28;5029404;28;20025;-41
2021/05/20 03:42:14;;;;;;;4.03;0.90;;;;;;;12.22;75.15;92525.69;5030326;28;20071;-41
2021/05/20 03:44:40;;;;;;;0.75;0.50;;;;;;;12.35;74.54;92519.72;5030168;28;20029;-42
2021/05/20 03:47:05;;;;;;;1.48;0.65;;;;;;;12.37;74.63;92531.66;5029834;28;20025;-42
2021/05/20 03:49:30;;;;;;;0.50;0.50;;;;;;;12.44;74.77;92536.34;5030038;28;20029;-43
2021/05/20 03:51:56;;;;;;;1.38;0.65;;;;;;;12.39;74.51;92565.03;5030088;28;20021;-40
2021/05/20 03:54:21;;;;;;;0.90;0.82;;;;;;;12.44;74.73;92571.59;5030305;28;20029;-41
2021/05/20 03:56:47;;;;;;;1.35;0.63;;;;;;;12.61;73.63;92594.34;5030620;28;20028;-43
2021/05/20 03:59:12;;;;;;;0.95;0.70;;;;;;;12.65;73.43;92575.22;5031670;28;20022;-42
2021/05/20 04:01:40;;;;;;;0.70;0.70;;;;;;;12.78;73.33;92587.91;5031612;28;20044;-44
2021/05/20 04:04:05;;;;;;;0.63;0.63;;;;;;;12.75;72.71;92600.16;5031479;28;20057;-45
2021/05/20 04:06:31;;;;;;;0.40;0.40;;;;;;;12.78;72.46;92602.50;5031515;28;20045;-42
2021/05/20 04:08:56;;;;;;;0.88;0.68;;;;;;;12.66;73.88;92609.94;5031136;28;20051;-42
2021/05/20 04:11:22;;;;;;;4.32;1.10;;;;;;;12.77;73.96;92619.69;5031208;28;20417;-42
2021/05/20 04:13:47;;;;;;;4.72;1.23;;;;;;;12.79;74.55;92628.16;5031089;28;20433;-41
2021/05/20 04:16:13;;;;;;;1.20;1.10;;;;;;;12.62;76.40;92636.59;5031486;28;20028;-45
2021/05/20 04:18:39;;;;;;;1.00;0.88;;;;;;;12.62;76.88;92636.59;5031533;28;20033;-43
2021/05/20 04:21:05;;;;;;;0.80;0.80;;;;;;;12.49;77.69;92620.41;5031061;28;20037;-41
2021/05/20 04:23:30;;;;;;;2.35;1.45;;;;;;;12.61;78.03;92646.22;5031248;28;20033;-41
2021/05/20 04:25:56;;;;;;;2.92;1.77;;;;;;;12.45;79.56;92650.56;5033216;28;20025;-42
2021/05/20 04:28:21;;;;;;;1.27;1.23;;;;;;;12.34;80.77;92659.44;5037504;28;20499;-42
2021/05/20 04:30:48;;;;;;;0.70;0.70;;;;;;;12.19;81.57;92646.59;5030961;28;20490;-41
2021/05/20 04:33:13;;;;;;;0.70;0.70;;;;;;;12.20;81.55;92648.03;5031098;28;20021;-42
2021/05/20 04:35:39;;;;;;;0.95;0.52;;;;;;;12.22;81.08;92641.91;5030757;28;20570;-43
2021/05/20 04:38:06;;;;;;;0.93;0.65;;;;;;;12.31;81.06;92644.72;5030984;28;20472;-42
2021/05/20 04:40:33;;;;;;;0.70;0.70;;;;;;;12.31;80.89;92630.88;5031008;28;20021;-44
2021/05/20 04:42:58;;;;;;;1.30;1.17;;;;;;;12.24;81.20;92620.66;5030949;28;20028;-41
2021/05/20 04:45:24;;;;;;;0.80;0.80;;;;;;;12.41;80.31;92633.66;5030710;28;20033;-41
2021/05/20 04:47:49;;;;;;;0.98;0.90;;;;;;;12.37;80.95;92625.03;5030417;28;20026;-41
2021/05/20 04:50:16;;;;;;;0.90;0.90;;;;;;;12.52;80.63;92638.63;5030808;28;20517;-41
2021/05/20 04:52:42;;;;;;;0.90;0.90;;;;;;;12.55;81.24;92635.44;5030505;28;20025;-41
2021/05/20 04:55:09;;;;;;;1.30;1.20;;;;;;;12.65;81.41;92635.41;5030301;28;20029;-42
2021/05/20 04:57:34;;;;;;;0.70;0.70;;;;;;;12.71;81.11;92630.34;5030602;28;20029;-43
2021/05/20 05:00:00;;;;;;;0.93;0.70;;;;;;;12.84;80.30;92629.91;5010626;28;20443;-43
2021/05/20 05:02:26;;;;;;;1.98;1.40;;;;;;;13.00;79.46;92635.88;5029080;28;20032;-43
2021/05/20 05:04:52;;;;;;;12.93;4.75;;;;;;;12.89;79.16;92615.75;5030133;28;20100;-42
2021/05/20 05:07:17;;;;;;;4.88;3.28;;;;;;;12.99;78.74;92623.34;5033987;28;20620;-44
2021/05/20 05:09:43;;;;;;;2.95;2.50;;;;;;;13.00;79.20;92619.97;5030754;28;20018;-45
2021/05/20 05:12:08;;;;;;;4.05;2.60;;;;;;;13.09;79.06;92601.91;5035302;28;20418;-42
2021/05/20 05:14:34;;;;;;;1.35;1.25;;;;;;;13.20;78.64;92613.13;5049815;28;20407;-42
2021/05/20 05:16:59;;;;;;;1.30;0.93;;;;;;;13.17;77.44;92614.28;5050116;28;20402;-42
2021/05/20 05:19:25;;;;;;;0.95;0.85;;;;;;;13.13;77.87;92616.78;5044640;28;20026;-42
2021/05/20 05:21:50;;;;;;;1.42;1.10;;;;;;;13.13;77.56;92621.59;5029881;28;20025;-46
2021/05/20 05:24:16;;;;;;;1.88;1.10;;;;;;;13.03;78.32;92627.13;5049056;28;20100;-44
2021/05/20 05:26:41;;;;;;;1.45;1.35;;;;;;;13.08;78.40;92626.13;5049673;28;20021;-42
2021/05/20 05:29:07;;;;;;;2.30;1.60;;;;;;;13.08;77.76;92615.03;5049626;28;20025;-44
2021/05/20 05:31:33;;;;;;;1.20;1.10;;;;;;;13.04;77.15;92620.25;5040818;28;20025;-42
2021/05/20 05:33:59;;;;;;;1.20;1.10;;;;;;;13.12;77.51;92617.38;5028612;28;20021;-44
2021/05/20 05:36:25;;;;;;;1.00;0.90;;;;;;;13.04;77.40;92609.19;5029944;28;20405;-42
2021/05/20 05:38:51;;;;;;;1.02;0.90;;;;;;;13.05;77.93;92609.94;5029849;28;20029;-42
2021/05/20 05:41:17;;;;;;;6.18;1.63;;;;;;;13.15;78.41;92602.34;5029603;28;20029;-43
2021/05/20 05:43:43;;;;;;;1.17;1.08;;;;;;;13.25;78.89;92603.81;5029403;28;20087;-43
2021/05/20 05:46:08;;;;;;;1.05;1.00;;;;;;;13.37;77.71;92607.41;5028992;28;20022;-42
2021/05/20 05:48:34;;;;;;;1.38;1.27;;;;;;;13.35;76.93;92610.03;5029820;28;20104;-43
2021/05/20 05:51:00;;;;;;;1.63;1.42;;;;;;;13.33;76.79;92612.69;5028917;28;20053;-42
2021/05/20 05:53:25;;;;;;;20.13;1.85;;;;;;;13.28;77.45;92607.41;5028376;28;20060;-42
2021/05/20 05:55:52;;;;;;;2.35;1.90;;;;;;;13.33;76.61;92601.59;5029198;28;20434;-42
2021/05/20 05:58:20;;;;;;;2.72;1.20;;;;;;;13.43;76.58;92596.72;5029050;28;20025;-41
2021/05/20 06:00:46;;;;;;;3.35;1.85;;;;;;;13.56;76.27;92610.13;5029405;28;20036;-42
2021/05/20 06:03:12;;;;;;;1.73;1.17;;;;;;;13.79;75.35;92611.66;5029472;28;20038;-42
2021/05/20 06:05:37;;;;;;;2.30;1.10;;;;;;;13.99;73.99;92610.28;5011460;28;20499;-43
2021/05/20 06:08:03;;;;;;;1.20;0.95;;;;;;;14.04;74.15;92612.72;5028789;28;20024;-41
2021/05/20 06:10:30;;;;;;;2.53;1.90;;;;;;;14.18;74.10;92612.94;5029527;28;20029;-41
2021/05/20 06:12:55;;;;;;;2.88;1.40;;;;;;;14.21;73.26;92614.53;5027766;28;20029;-42
2021/05/20 06:15:20;;;;;;;1.08;1.08;;;;;;;14.16;70.92;92627.41;5027217;28;20544;-42
2021/05/20 06:17:46;;;;;;;1.17;1.00;;;;;;;14.06;70.40;92626.00;5027329;28;20060;-41
2021/05/20 06:20:11;;;;;;;1.75;0.93;;;;;;;14.00;70.18;92633.91;5036846;28;20321;-43
2021/05/20 06:22:37;;;;;;;0.85;0.70;;;;;;;13.89;70.37;92635.28;5041377;28;20082;-42
2021/05/20 06:25:04;;;;;;;1.02;0.70;;;;;;;13.95;70.62;92646.78;5046053;28;20543;-43
2021/05/20 06:27:29;;;;;;;0.77;0.70;;;;;;;13.79;70.17;92644.97;5047087;28;20055;-41
2021/05/20 06:29:55;;;;;;;1.50;0.60;;;;;;;13.78;71.03;92654.59;5046627;28;20502;-41
2021/05/20 06:32:21;;;;;;;0.45;0.45;;;;;;;13.73;71.59;92667.44;5031632;28;20025;-43
2021/05/20 06:34:46;;;;;;;0.20;0.20;;;;;;;13.59;71.37;92655.38;5027677;28;20032;-43
2021/05/20 06:37:12;;;;;;;1.17;0.80;;;;;;;13.17;72.34;92653.09;5026641;28;20037;-40
2021/05/20 06:39:39;;;;;;;1.30;1.20;;;;;;;12.96;72.82;92630.78;5026546;28;20104;-40
2021/05/20 06:42:05;;;;;;;0.85;0.85;;;;;;;12.79;72.65;92617.81;5026893;28;20037;-40
2021/05/20 06:44:30;;;;;;;0.45;0.45;;;;;;;12.52;74.64;92635.84;5026983;28;20447;-40
2021/05/20 06:46:56;;;;;;;0.70;0.70;;;;;;;12.47;74.45;92653.50;5025569;28;20836;-41
2021/05/20 06:49:21;;;;;;;1.98;1.80;;;;;;;12.35;75.75;92647.78;5025194;28;20731;-41
2021/05/20 06:51:46;;;;;;;1.95;1.33;;;;;;;12.30;76.37;92651.53;5025407;28;20060;-41
2021/05/20 06:54:12;;;;;;;3.25;1.52;;;;;;;12.38;76.77;92660.47;5025295;28;20033;-42
2021/05/20 06:56:39;;;;;;;4.72;1.80;;;;;;;12.47;75.29;92665.28;5025795;28;20099;-43
2021/05/20 07:01:49;;;;;;;0.47;0.47;;;;;;;12.40;74.26;92659.88;5028165;28;20184;-42
2021/05/20 07:04:14;;;;;;;2.65;1.38;;;;;;;12.46;73.98;92672.13;5029010;28;20025;-40
2021/05/20 07:06:40;;;;;;;3.10;0.88;;;;;;;12.44;73.87;92669.22;5011343;28;20030;-41
2021/05/20 07:09:06;;;;;;;1.60;0.50;;;;;;;12.37;73.88;92670.06;5028590;28;20055;-42
2021/05/20 07:11:32;;;;;;;0.57;0.55;;;;;;;12.34;73.65;92687.84;5029920;28;20037;-40
2021/05/20 07:13:58;;;;;;;1.77;0.82;;;;;;;12.35;74.52;92686.53;5029715;28;20522;-41
2021/05/20 07:16:23;;;;;;;1.67;0.75;;;;;;;12.50;74.71;92677.97;5044503;28;20115;-40
2021/05/20 07:18:48;;;;;;;0.40;0.40;;;;;;;12.45;74.99;92690.03;5047241;28;20056;-41
2021/05/20 07:21:14;;;;;;;0.52;0.52;;;;;;;12.53;73.92;92695.47;5034534;28;20090;-41
2021/05/20 07:23:39;;;;;;;3.50;1.00;;;;;;;12.43;73.45;92694.72;5048099;28;20036;-41
2021/05/20 07:26:05;;;;;;;1.42;1.33;;;;;;;12.42;73.92;92696.00;5048528;28;20036;-41
2021/05/20 07:28:31;;;;;;;2.45;0.98;;;;;;;12.39;73.88;92708.25;5048349;28;20098;-42
2021/05/20 07:30:57;;;;;;;2.63;2.40;;;;;;;12.37;73.93;92699.78;5037609;28;20562;-41
2021/05/20 07:33:23;;;;;;;0.88;0.88;;;;;;;12.53;73.93;92701.00;5028464;28;20116;-42
2021/05/20 07:35:49;;;;;;;3.05;1.83;;;;;;;12.60;73.31;92689.81;5028501;28;20030;-42
2021/05/20 07:38:14;;;;;;;1.42;1.20;;;;;;;12.63;71.06;92694.16;5028482;28;20122;-41
2021/05/20 07:40:40;;;;;;;1.40;1.08;;;;;;;12.56;72.20;92703.34;5027822;28;20437;-41
2021/05/20 07:43:05;;;;;;;1.77;0.90;;;;;;;12.53;72.26;92695.47;5027538;28;20064;-39
2021/05/20 07:45:30;;;;;;;0.63;0.63;;;;;;;12.59;73.02;92704.22;5027548;28;20029;-38
2021/05/20 07:47:56;;;;;;;1.15;0.80;;;;;;;12.60;72.86;92703.66;5009756;28;20029;-39
2021/05/20 07:50:21;;;;;;;0.60;0.57;;;;;;;12.60;73.40;92695.34;5014534;28;20048;-39
2021/05/20 07:52:48;;;;;;;0.55;0.55;;;;;;;12.68;74.18;92706.28;5048452;28;20516;-43
2021/05/20 07:55:14;;;;;;;1.05;0.65;;;;;;;12.75;74.77;92714.47;5047492;28;20783;-38
2021/05/20 07:57:40;;;;;;;0.50;0.50;;;;;;;12.65;74.61;92724.78;5045645;28;20037;-39
2021/05/20 08:00:07;;;;;;;0.85;0.85;;;;;;;12.74;74.02;92717.81;5025879;28;20678;-41
2021/05/20 08:05:11;;;;;;;0.57;0.57;;;;;;;12.89;73.02;92721.03;5028423;28;20040;-43
2021/05/20 08:12:44;;;;;;;0.77;0.77;;;;;;;12.87;71.75;92747.84;5026905;28;20041;-42
2021/05/20 08:15:10;;;;;;;1.90;0.90;;;;;;;12.93;72.04;92753.84;5034835;28;20520;-43
2021/05/20 08:17:35;;;;;;;1.77;1.27;;;;;;;12.85;72.36;92761.56;5048761;28;20028;-38
2021/05/20 08:20:01;;;;;;;1.42;1.05;;;;;;;12.80;70.37;92773.66;5047416;28;20533;-41
2021/05/20 08:22:26;;;;;;;4.22;2.42;;;;;;;12.74;70.04;92775.97;5028310;28;20057;-40
2021/05/20 08:24:53;;;;;;;7.03;3.30;;;;;;;12.72;69.87;92778.59;5028541;28;20037;-42
2021/05/20 08:27:19;;;;;;;4.10;1.92;;;;;;;12.46;69.74;92771.06;5028892;28;20095;-40
2021/05/20 08:29:45;;;;;;;1.92;1.20;;;;;;;12.38;71.24;92787.06;5028934;28;20025;-42
2021/05/20 08:32:11;;;;;;;0.70;0.70;;;;;;;12.28;70.91;92789.78;5028820;28;20091;-41
2021/05/20 08:34:36;;;;;;;0.95;0.52;;;;;;;12.17;71.00;92779.25;5029155;28;20422;-41
2021/05/20 08:37:02;;;;;;;0.93;0.82;;;;;;;12.31;72.12;92810.78;5028713;28;20579;-42
2021/05/20 08:39:28;;;;;;;1.10;1.00;;;;;;;12.23;72.75;92809.44;5029173;28;20061;-41
2021/05/20 08:41:54;;;;;;;1.10;0.88;;;;;;;12.27;72.64;92807.72;5028953;28;20021;-41
2021/05/20 08:44:24;;;;;;;1.63;1.15;;;;;;;12.27;72.21;92806.97;5029177;28;20116;-43
2021/05/20 08:46:50;;;;;;;1.58;1.48;;;;;;;12.17;72.80;92779.97;5010821;28;20025;-41
2021/05/20 08:49:15;;;;;;;0.57;0.57;;;;;;;12.48;72.60;92802.41;5010496;28;20035;-42
2021/05/20 08:51:43;;;;;;;0.98;0.95;;;;;;;12.57;73.27;92804.50;5028761;28;20022;-40
2021/05/20 08:54:08;;;;;;;0.90;0.90;;;;;;;12.76;72.20;92799.00;5028732;28;20022;-40
2021/05/20 08:56:33;;;;;;;4.03;2.42;;;;;;;13.07;72.20;92804.06;5028656;28;20095;-40
2021/05/20 08:58:59;;;;;;;1.08;0.98;;;;;;;13.38;71.96;92808.47;5028378;28;20057;-42
2021/05/20 09:01:39;;;;;;;0.63;0.63;;;;;;;13.62;69.74;92820.63;5027237;28;20036;-42
2021/05/20 09:04:05;;;;;;;0.50;0.50;;;;;;;13.90;68.15;92817.13;5028369;28;20052;-41
2021/05/20 09:06:42;;;;;;;1.55;0.98;;;;;;;14.12;68.02;92813.13;5028586;28;20426;-43
2021/05/20 09:09:11;;;;;;;1.30;0.60;;;;;;;14.39;67.13;92821.28;5046006;28;20029;-40
2021/05/20 09:11:36;;;;;;;;;;;;;;;14.68;63.45;92818.41;5048704;28;20041;-41
2021/05/20 09:14:06;;;;;;;5.05;0.45;;;;;;;14.52;62.04;92820.06;5047625;28;19974;-40
2021/05/20 09:16:34;;;;;;;;;;;;;;;14.97;62.49;92821.78;5048960;28;20691;-41
2021/05/20 09:19:01;;;;;;;0.55;0.55;;;;;;;15.25;60.67;92817.41;5047911;28;19955;-42
2021/05/20 09:21:27;;;;;;;2.15;2.00;;;;;;;15.96;61.63;92817.94;5041489;28;20497;-41
2021/05/20 09:23:52;;;;;;;3.13;1.15;;;;;;;16.64;58.71;92810.41;5027315;28;20033;-41
2021/05/20 09:26:18;;;;;;;0.50;0.50;;;;;;;17.37;56.52;92807.84;5027516;28;20490;-43
2021/05/20 09:28:47;;;;;;;0.68;0.38;;;;;;;17.96;52.97;92805.66;5010088;28;20487;-41
2021/05/20 09:31:14;;;;;;;;;;;;;;;18.09;53.94;92805.00;5026358;28;20032;-38
2021/05/20 09:33:53;;;;;;;5.40;1.65;;;;;;;18.05;53.33;92799.19;5027856;28;20295;-42
2021/05/20 09:36:23;;;;;;;3.42;1.63;;;;;;;17.77;54.59;92809.50;5025507;28;20025;-41
2021/05/20 09:38:48;;;;;;;0.30;0.30;;;;;;;17.42;54.70;92803.97;5027330;28;20021;-38
2021/05/20 09:41:18;;;;;;;0.50;0.50;;;;;;;17.12;53.97;92804.22;5026754;28;20509;-38
2021/05/20 09:43:46;;;;;;;0.82;0.77;;;;;;;16.46;58.18;92792.50;5027367;28;20036;-41
2021/05/20 09:46:11;;;;;;;0.75;0.40;;;;;;;15.82;59.34;92808.69;5026182;28;20033;-42
2021/05/20 09:48:42;;;;;;;0.35;0.35;;;;;;;15.78;60.27;92797.28;5021238;28;20797;-41
2021/05/20 09:51:26;;;;;;;3.17;1.05;;;;;;;15.13;60.15;92795.09;5027012;28;20025;-43
2021/05/20 09:53:53;;;;;;;1.45;0.57;;;;;;;14.65;62.08;92802.91;5013848;28;20025;-42
2021/05/20 09:56:41;;;;;;;1.58;0.30;;;;;;;14.12;62.39;92804.09;5024603;28;20021;-42
2021/05/20 09:59:11;;;;;;;0.98;0.50;;;;;;;13.93;64.37;92804.84;5042061;28;20052;-41
2021/05/20 10:01:37;;;;;;;0.40;0.40;;;;;;;13.64;65.82;92801.38;5023901;28;20052;-41
2021/05/20 10:04:02;;;;;;;1.02;0.50;;;;;;;13.54;66.47;92800.63;5029503;28;20021;-40
2021/05/20 10:06:33;;;;;;;0.50;0.50;;;;;;;13.73;66.92;92800.59;5027180;28;20549;-42
2021/05/20 10:08:59;;;;;;;0.50;0.50;;;;;;;13.88;65.56;92803.06;5025735;28;20033;-42
2021/05/20 10:11:25;;;;;;;0.40;0.40;;;;;;;13.99;65.66;92799.00;5026007;28;20761;-44
2021/05/20 10:13:50;;;;;;;0.88;0.60;;;;;;;14.09;65.01;92789.34;5008465;28;20029;-42
2021/05/20 10:16:17;;;;;;;0.43;0.43;;;;;;;14.26;64.23;92791.19;5009352;28;20842;-43
2021/05/20 10:18:42;;;;;;;1.15;1.05;;;;;;;14.50;63.99;92798.44;5026503;28;20037;-42
2021/05/20 10:21:08;;;;;;;1.05;0.50;;;;;;;14.80;63.49;92794.22;5028730;28;20029;-41
2021/05/20 10:23:33;;;;;;;0.40;0.40;;;;;;;15.26;61.52;92796.63;5029031;28;20026;-41
2021/05/20 10:25:59;;;;;;;0.40;0.40;;;;;;;15.69;60.95;92806.44;5011436;28;20021;-41
2021/05/20 10:28:25;;;;;;;0.43;0.43;;;;;;;15.63;58.68;92794.91;5028720;28;20048;-42
2021/05/20 10:30:52;;;;;;;0.35;0.35;;;;;;;16.13;58.32;92798.16;5028472;28;20022;-42
2021/05/20 10:33:23;;;;;;;0.20;0.20;;;;;;;16.40;56.40;92806.81;5030153;28;20025;-41
2021/05/20 10:35:51;;;;;;;0.30;0.30;;;;;;;16.31;55.73;92809.69;5032244;28;20048;-42
2021/05/20 10:38:18;;;;;;;0.63;0.50;;;;;;;16.57;56.39;92809.28;5029608;28;20107;-42
2021/05/20 10:40:43;;;;;;;0.43;0.40;;;;;;;16.19;56.30;92801.31;5014402;28;20076;-43
2021/05/20 10:43:11;;;;;;;0.40;0.40;;;;;;;16.10;56.41;92804.91;5031581;28;20692;-39
2021/05/20 10:45:39;;;;;;;0.30;0.30;;;;;;;15.72;55.67;92803.19;5029312;28;20453;-43
2021/05/20 10:48:05;;;;;;;0.68;0.60;;;;;;;15.51;58.06;92805.25;5031657;28;20034;-42
2021/05/20 10:50:53;;;;;;;0.68;0.50;;;;;;;15.31;57.25;92799.06;5031890;28;20026;-42
2021/05/20 10:53:47;;;;;;;0.70;0.52;;;;;;;15.57;58.44;92809.16;5029914;28;20029;-42
2021/05/20 10:56:15;;;;;;;0.55;0.55;;;;;;;15.88;57.28;92798.66;5031151;28;20658;-42
2021/05/20 10:58:46;;;;;;;0.60;0.55;;;;;;;16.24;55.91;92794.66;5027027;28;20121;-42
2021/05/20 11:01:21;;;;;;;0.57;0.57;;;;;;;16.56;56.34;92798.75;5032492;28;20037;-42
2021/05/20 11:03:46;;;;;;;9.50;0.70;;;;;;;17.63;53.90;92805.88;5032281;28;20518;-42
2021/05/20 11:06:15;;;;;;;0.47;0.47;;;;;;;18.44;49.54;92785.25;5032206;28;20109;-41
2021/05/20 11:08:46;;;;;;;;;;;;;;;18.91;48.97;92780.84;5032470;28;20025;-42
2021/05/20 11:11:30;;;;;;;0.55;0.45;;;;;;;18.65;47.30;92782.97;5031730;28;19917;-42
2021/05/20 11:13:56;;;;;;;0.73;0.40;;;;;;;18.54;46.67;92763.47;5028968;28;20025;-42
2021/05/20 11:16:35;;;;;;;5.85;0.60;;;;;;;18.36;48.56;92776.44;5031249;28;20029;-41
2021/05/20 11:19:16;;;;;;;;;;;;;;;19.49;46.04;92764.28;5030240;28;20022;-42
2021/05/20 11:22:07;;;;;;;0.20;0.20;;;;;;;20.42;46.00;92761.13;5030031;28;20341;-41
2021/05/20 11:24:40;;;;;;;0.30;0.30;;;;;;;20.87;43.67;92758.31;5028790;28;20044;-41
2021/05/20 11:27:19;;;;;;;0.93;0.50;;;;;;;20.70;41.89;92764.53;5021334;28;20410;-41
2021/05/20 11:29:48;;;;;;;2.15;0.20;;;;;;;20.00;41.65;92764.72;5030903;28;20483;-42
2021/05/20 11:32:30;;;;;;;1.17;0.30;;;;;;;19.61;44.44;92772.56;5030460;28;20036;-43
2021/05/20 11:35:17;;;;;;;0.35;0.35;;;;;;;19.58;43.36;92771.75;5029301;28;20025;-42
2021/05/20 11:37:43;;;;;;;8.65;3.45;;;;;;;19.66;44.72;92768.63;5030161;28;20060;-41
2021/05/20 11:40:29;;;;;;;8.25;3.95;;;;;;;19.91;42.67;92765.66;5031766;28;20029;-42
2021/05/20 11:42:55;;;;;;;1.13;1.13;;;;;;;19.85;43.27;92768.19;5028955;28;20029;-44
2021/05/20 11:45:32;;;;;;;0.35;0.35;;;;;;;18.85;45.24;92774.94;5013359;28;20615;-42